| Date | Time | Temp. (oF) | Dew Point (oF) | Rel. Hum. (%) | Press. (in.) | Wind Dir. | Wind Speed (mph) | Hourly Rainfall (in.) |
|
|---|---|---|---|---|---|---|---|---|---|
| 1 | 08/10 | 00:00 | 69 | 59 | 71 | 29.95 | S | 4 | 0.00 |
| 2 | 08/09 | 23:00 | 69 | 61 | 76 | 29.94 | S | 1 | 0.00 |
| 3 | 08/09 | 22:00 | 71 | 64 | 79 | 29.94 | S | 3 | 0.00 |
| 4 | 08/09 | 21:00 | 74 | 64 | 73 | 29.92 | SSW | 0 | 0.00 |
| 5 | 08/09 | 20:00 | 76 | 64 | 68 | 29.90 | SSW | 1 | 0.00 |
| 6 | 08/09 | 19:00 | 79 | 64 | 61 | 29.89 | SW | 3 | 0.00 |
| 7 | 08/09 | 18:00 | 80 | 62 | 56 | 29.89 | SSW | 6 | 0.00 |
| 8 | 08/09 | 17:00 | 81 | 61 | 52 | 29.90 | SW | 4 | 0.00 |
| 9 | 08/09 | 16:00 | 83 | 63 | 53 | 29.91 | SSW | 3 | 0.00 |
| 10 | 08/09 | 15:00 | 82 | 64 | 56 | 29.92 | SE | 1 | 0.00 |
| 11 | 08/09 | 14:00 | 79 | 63 | 60 | 29.93 | SSW | 2 | 0.00 |
| 12 | 08/09 | 13:00 | 76 | 65 | 69 | 29.93 | SSW | 0 | 0.00 |
| 13 | 08/09 | 12:00 | 74 | 63 | 71 | 29.93 | E | 2 | 0.00 |
| 14 | 08/09 | 11:00 | 73 | 64 | 76 | 29.93 | SSE | 0 | 0.00 |
| 15 | 08/09 | 10:00 | 72 | 63 | 75 | 29.94 | NE | 1 | 0.00 |
| 16 | 08/09 | 09:00 | 71 | 62 | 75 | 29.93 | SW | 0 | 0.00 |
| 17 | 08/09 | 08:00 | 69 | 63 | 82 | 29.93 | SW | 4 | 0.00 |
| 18 | 08/09 | 07:00 | 65 | 60 | 84 | 29.92 | S | 0 | 0.00 |
| 19 | 08/09 | 06:00 | 66 | 60 | 82 | 29.92 | ESE | 0 | 0.00 |
| 20 | 08/09 | 05:00 | 66 | 60 | 83 | 29.92 | ESE | 0 | 0.00 |
| 21 | 08/09 | 04:00 | 66 | 60 | 83 | 29.92 | ESE | 0 | 0.00 |
| 22 | 08/09 | 03:00 | 66 | 60 | 83 | 29.92 | ESE | 0 | 0.00 |
| 23 | 08/09 | 02:00 | 67 | 60 | 80 | 29.91 | SE | 0 | 0.00 |
| 24 | 08/09 | 01:00 | 68 | 60 | 78 | 29.91 | SSW | 0 | 0.00 |